createdAt,value
2018-06-11T00:01:42.291Z,100838.00
2018-06-11T00:04:54.452Z,100833.00
2018-06-11T00:08:05.935Z,100831.00
2018-06-11T00:11:16.764Z,100832.00
2018-06-11T00:14:27.316Z,100825.00
2018-06-11T00:17:38.289Z,100830.00
2018-06-11T00:20:49.708Z,100830.00
2018-06-11T00:24:00.352Z,100832.00
2018-06-11T00:27:11.078Z,100830.00
2018-06-11T00:30:22.912Z,100832.00
2018-06-11T00:33:38.045Z,100824.00
2018-06-11T00:36:48.909Z,100828.00
2018-06-11T00:39:59.813Z,100831.00
2018-06-11T00:43:10.697Z,100841.00
2018-06-11T00:46:21.355Z,100839.00
2018-06-11T00:49:32.104Z,100835.00
2018-06-11T00:52:42.748Z,100837.00
2018-06-11T00:56:04.264Z,100840.00
2018-06-11T00:59:15.656Z,100835.00
2018-06-11T01:02:26.585Z,100836.00
2018-06-11T01:05:37.449Z,100847.00
2018-06-11T01:08:48.143Z,100843.00
2018-06-11T01:11:58.763Z,100840.00
2018-06-11T01:15:09.649Z,100839.00
2018-06-11T01:18:20.143Z,100846.00
2018-06-11T01:21:30.714Z,100847.00
2018-06-11T01:24:41.611Z,100848.00
2018-06-11T01:27:53.120Z,100851.00
2018-06-11T01:31:04.025Z,100846.00
2018-06-11T01:34:14.660Z,100846.00
2018-06-11T01:37:25.353Z,100842.00
2018-06-11T01:40:35.963Z,100833.00
2018-06-11T01:43:46.832Z,100834.00
2018-06-11T01:46:59.557Z,100832.00
2018-06-11T01:50:10.327Z,100830.00
2018-06-11T01:53:21.172Z,100823.00
2018-06-11T01:56:31.772Z,100816.00
2018-06-11T01:59:42.627Z,100820.00
2018-06-11T02:02:53.125Z,100816.00
2018-06-11T02:06:03.362Z,100801.00
2018-06-11T02:09:14.504Z,100795.00
2018-06-11T02:12:25.268Z,100798.00
2018-06-11T02:15:36.192Z,100793.00
2018-06-11T02:18:46.946Z,100792.00
2018-06-11T02:21:57.858Z,100797.00
2018-06-11T02:25:09.370Z,100795.00
2018-06-11T02:28:19.698Z,100798.00
2018-06-11T02:31:30.043Z,100795.00
2018-06-11T02:34:40.839Z,100792.00
2018-06-11T02:37:55.714Z,100788.00
2018-06-11T02:41:06.051Z,100779.00
2018-06-11T02:44:17.869Z,100771.00
2018-06-11T02:47:28.705Z,100769.00
2018-06-11T02:50:39.176Z,100766.00
2018-06-11T02:53:50.750Z,100767.00
2018-06-11T02:57:02.794Z,100754.00
2018-06-11T03:00:13.359Z,100769.00
2018-06-11T03:03:24.482Z,100766.00
2018-06-11T03:06:35.564Z,100768.00
2018-06-11T03:09:46.447Z,100774.00
2018-06-11T03:12:57.955Z,100769.00
2018-06-11T03:16:09.048Z,100764.00
2018-06-11T03:19:20.313Z,100761.00
2018-06-11T03:22:31.269Z,100763.00
2018-06-11T03:25:41.975Z,100763.00
2018-06-11T03:28:52.815Z,100765.00
2018-06-11T03:32:04.755Z,100764.00
2018-06-11T03:35:15.171Z,100775.00
2018-06-11T03:38:25.480Z,100774.00
2018-06-11T03:41:36.694Z,100778.00
2018-06-11T03:44:47.420Z,100787.00
2018-06-11T03:47:57.816Z,100787.00
2018-06-11T03:51:08.432Z,100794.00
2018-06-11T03:54:19.220Z,100798.00
2018-06-11T03:57:29.883Z,100803.00
2018-06-11T04:00:40.464Z,100803.00
2018-06-11T04:03:51.263Z,100807.00
2018-06-11T04:07:01.915Z,100813.00
2018-06-11T04:10:12.877Z,100812.00
2018-06-11T04:13:23.741Z,100812.00
2018-06-11T04:16:35.088Z,100815.00
2018-06-11T04:19:45.784Z,100821.00
2018-06-11T04:22:56.064Z,100824.00
2018-06-11T04:26:07.910Z,100809.00
2018-06-11T04:29:18.459Z,100827.00
2018-06-11T04:32:29.282Z,100826.00
2018-06-11T04:35:40.303Z,100826.00
2018-06-11T04:38:51.687Z,100833.00
2018-06-11T04:42:02.197Z,100832.00
2018-06-11T04:45:13.019Z,100829.00
2018-06-11T04:48:23.608Z,100828.00
2018-06-11T04:51:34.450Z,100834.00
2018-06-11T04:54:45.499Z,100833.00
2018-06-11T04:57:56.799Z,100834.00
2018-06-11T05:01:08.932Z,100832.00
2018-06-11T05:04:19.290Z,100831.00
2018-06-11T05:07:33.464Z,100827.00
2018-06-11T05:10:49.969Z,100824.00
2018-06-11T05:14:01.440Z,100826.00
2018-06-11T05:17:12.918Z,100830.00
2018-06-11T05:20:27.958Z,100821.00
2018-06-11T05:23:38.904Z,100817.00
2018-06-11T05:26:54.186Z,100816.00
2018-06-11T05:30:04.623Z,100811.00
2018-06-11T05:33:15.247Z,100817.00
2018-06-11T05:36:26.400Z,100814.00
2018-06-11T05:39:36.941Z,100812.00
2018-06-11T05:42:47.817Z,100823.00
2018-06-11T05:45:58.279Z,100821.00
2018-06-11T05:49:10.525Z,100820.00
2018-06-11T05:52:21.471Z,100822.00
2018-06-11T05:55:32.808Z,100830.00
2018-06-11T05:58:43.348Z,100832.00
2018-06-11T06:01:53.816Z,100831.00
2018-06-11T06:05:04.163Z,100838.00
2018-06-11T06:08:14.803Z,100839.00
2018-06-11T06:11:25.417Z,100843.00
2018-06-11T06:14:35.721Z,100850.00
2018-06-11T06:17:46.431Z,100848.00
2018-06-11T06:20:57.986Z,100848.00
2018-06-11T06:24:08.921Z,100846.00
2018-06-11T06:27:19.684Z,100838.00
2018-06-11T06:30:30.777Z,100838.00
2018-06-11T06:33:41.620Z,100845.00
2018-06-11T06:36:52.655Z,100846.00
2018-06-11T06:40:03.526Z,100851.00
2018-06-11T06:43:14.324Z,100860.00
2018-06-11T06:46:25.296Z,100867.00
2018-06-11T06:49:36.052Z,100859.00
2018-06-11T06:52:46.628Z,100857.00
2018-06-11T06:55:57.365Z,100859.00
2018-06-11T06:59:07.907Z,100865.00
2018-06-11T07:02:19.310Z,100866.00
2018-06-11T07:05:30.397Z,100859.00
2018-06-11T07:08:41.403Z,100863.00
2018-06-11T07:11:52.890Z,100861.00
2018-06-11T07:15:03.652Z,100861.00
2018-06-11T07:18:14.453Z,100848.00
2018-06-11T07:21:25.075Z,100856.00
2018-06-11T07:24:35.443Z,100856.00
2018-06-11T07:27:46.669Z,100850.00
2018-06-11T07:30:57.398Z,100858.00
2018-06-11T07:34:08.253Z,100862.00
2018-06-11T07:37:18.594Z,100855.00
2018-06-11T07:40:29.360Z,100852.00
2018-06-11T07:43:40.307Z,100843.00
2018-06-11T07:46:51.274Z,100847.00
2018-06-11T07:50:01.902Z,100857.00
2018-06-11T07:53:12.865Z,100850.00
2018-06-11T07:56:24.172Z,100841.00
2018-06-11T07:59:34.550Z,100835.00
2018-06-11T08:02:45.891Z,100831.00
2018-06-11T08:05:56.719Z,100831.00
2018-06-11T08:09:09.090Z,100832.00
2018-06-11T08:12:20.762Z,100841.00
2018-06-11T08:15:31.474Z,100839.00
2018-06-11T08:18:42.274Z,100837.00
2018-06-11T08:21:52.514Z,100839.00
2018-06-11T08:25:02.952Z,100850.00
2018-06-11T08:28:13.808Z,100845.00
2018-06-11T08:31:24.249Z,100846.00
2018-06-11T08:34:34.708Z,100847.00
2018-06-11T08:37:45.493Z,100842.00
2018-06-11T08:40:55.746Z,100848.00
2018-06-11T08:44:06.456Z,100836.00
2018-06-11T08:47:16.962Z,100830.00
2018-06-11T08:50:27.675Z,100824.00
2018-06-11T08:53:38.163Z,100825.00
2018-06-11T08:56:48.902Z,100823.00
2018-06-11T09:00:00.648Z,100812.00
2018-06-11T09:03:11.269Z,100806.00
2018-06-11T09:06:21.897Z,100805.00
2018-06-11T09:09:32.672Z,100802.00
2018-06-11T09:12:43.436Z,100809.00
2018-06-11T09:15:54.832Z,100814.00
2018-06-11T09:19:05.616Z,100817.00
2018-06-11T09:22:17.447Z,100811.00
2018-06-11T09:25:27.764Z,100807.00
2018-06-11T09:28:38.504Z,100805.00
2018-06-11T09:31:49.225Z,100804.00
2018-06-11T09:34:59.772Z,100801.00
2018-06-11T09:38:10.604Z,100797.00
2018-06-11T09:41:20.911Z,100793.00
2018-06-11T09:44:32.427Z,100805.00
2018-06-11T09:47:43.932Z,100801.00
2018-06-11T09:50:54.933Z,100785.00
2018-06-11T09:54:05.287Z,100790.00
2018-06-11T09:57:15.975Z,100789.00
2018-06-11T10:00:37.819Z,100798.00
2018-06-11T10:03:48.544Z,100799.00
2018-06-11T10:06:58.977Z,100799.00
2018-06-11T10:10:09.215Z,100795.00
2018-06-11T10:13:21.468Z,100795.00
2018-06-11T10:16:32.324Z,100799.00
2018-06-11T10:19:42.692Z,100798.00
2018-06-11T10:22:53.420Z,100804.00
2018-06-11T10:26:04.183Z,100817.00
2018-06-11T10:29:14.957Z,100814.00
2018-06-11T10:32:26.289Z,100807.00
2018-06-11T10:35:41.420Z,100796.00
2018-06-11T10:38:52.188Z,100797.00
2018-06-11T10:42:03.160Z,100805.00
2018-06-11T10:45:13.908Z,100805.00
2018-06-11T10:48:24.343Z,100792.00
2018-06-11T10:51:34.719Z,100796.00
2018-06-11T10:54:45.450Z,100784.00
2018-06-11T10:57:55.909Z,100791.00
2018-06-11T11:01:06.263Z,100783.00
2018-06-11T11:04:17.071Z,100779.00
2018-06-11T11:07:27.821Z,100770.00
2018-06-11T11:10:38.492Z,100758.00
2018-06-11T11:13:49.689Z,100760.00
2018-06-11T11:17:00.492Z,100765.00
2018-06-11T11:20:10.716Z,100759.00
2018-06-11T11:23:21.648Z,100759.00
2018-06-11T11:26:32.283Z,100753.00
2018-06-11T11:29:43.804Z,100746.00
2018-06-11T11:32:54.613Z,100741.00
2018-06-11T11:36:05.255Z,100739.00
2018-06-11T11:39:15.841Z,100739.00
2018-06-11T11:42:26.152Z,100738.00
2018-06-11T11:45:36.867Z,100738.00
2018-06-11T11:48:47.467Z,100731.00
2018-06-11T11:51:58.184Z,100726.00
2018-06-11T11:55:08.883Z,100707.00
2018-06-11T11:58:19.627Z,100718.00
2018-06-11T12:01:30.273Z,100713.00
2018-06-11T12:04:40.908Z,100697.00
2018-06-11T12:07:51.411Z,100697.00
2018-06-11T12:11:02.310Z,100689.00
2018-06-11T12:14:12.863Z,100682.00
2018-06-11T12:17:23.774Z,100663.00
2018-06-11T12:20:34.184Z,100666.00
2018-06-11T12:23:45.198Z,100667.00
2018-06-11T12:26:56.327Z,100665.00
2018-06-11T12:30:07.053Z,100662.00
2018-06-11T12:33:17.788Z,100656.00
2018-06-11T12:36:28.340Z,100649.00
2018-06-11T12:39:38.793Z,100658.00
2018-06-11T12:42:50.011Z,100653.00
2018-06-11T12:46:00.648Z,100659.00
2018-06-11T12:49:11.416Z,100651.00
2018-06-11T12:52:22.085Z,100649.00
2018-06-11T12:55:32.639Z,100648.00
2018-06-11T12:58:43.587Z,100637.00
2018-06-11T13:01:54.303Z,100626.00
2018-06-11T13:05:04.804Z,100639.00
2018-06-11T13:08:15.522Z,100629.00
2018-06-11T13:11:26.145Z,100627.00
2018-06-11T13:14:36.878Z,100626.00
2018-06-11T13:17:48.322Z,100623.00
2018-06-11T13:21:00.187Z,100622.00
2018-06-11T13:24:10.870Z,100629.00
2018-06-11T13:27:22.200Z,100621.00
2018-06-11T13:30:32.629Z,100610.00
2018-06-11T13:33:43.327Z,100606.00
2018-06-11T13:36:54.133Z,100598.00
2018-06-11T13:40:04.740Z,100605.00
2018-06-11T13:43:15.553Z,100589.00
2018-06-11T13:46:26.552Z,100578.00
2018-06-11T13:49:37.400Z,100582.00
2018-06-11T13:52:47.853Z,100594.00
2018-06-11T13:55:58.740Z,100575.00
2018-06-11T13:59:09.261Z,100568.00
2018-06-11T14:02:19.831Z,100559.00
2018-06-11T14:05:30.684Z,100567.00
2018-06-11T14:08:41.359Z,100572.00
2018-06-11T14:11:52.292Z,100563.00
2018-06-11T14:15:03.152Z,100556.00
2018-06-11T14:18:18.512Z,100571.00
2018-06-11T14:21:30.115Z,100574.00
2018-06-11T14:24:40.414Z,100559.00
2018-06-11T14:27:52.111Z,100550.00
2018-06-11T14:31:02.676Z,100535.00
2018-06-11T14:34:13.216Z,100527.00
2018-06-11T14:37:23.876Z,100534.00
2018-06-11T14:40:34.617Z,100526.00
2018-06-11T14:43:45.217Z,100536.00
2018-06-11T14:46:56.503Z,100551.00
2018-06-11T14:50:07.600Z,100554.00
2018-06-11T14:53:17.989Z,100562.00
2018-06-11T14:56:28.337Z,100574.00
2018-06-11T14:59:39.035Z,100578.00
2018-06-11T15:02:50.926Z,100574.00
2018-06-11T15:06:01.183Z,100579.00
2018-06-11T15:09:13.041Z,100579.00
2018-06-11T15:12:24.498Z,100566.00
2018-06-11T15:15:36.155Z,100558.00
2018-06-11T15:18:47.024Z,100561.00
2018-06-11T15:21:57.796Z,100562.00
2018-06-11T15:25:08.903Z,100557.00
2018-06-11T15:28:20.343Z,100551.00
2018-06-11T15:31:31.307Z,100544.00
2018-06-11T15:34:43.828Z,100541.00
2018-06-11T15:37:54.821Z,100537.00
2018-06-11T15:41:05.935Z,100532.00
2018-06-11T15:44:17.123Z,100530.00
2018-06-11T15:47:28.319Z,100531.00
2018-06-11T15:50:40.510Z,100531.00
2018-06-11T15:53:53.017Z,100532.00
2018-06-11T15:57:04.699Z,100537.00
2018-06-11T16:00:17.287Z,100537.00
2018-06-11T16:03:29.444Z,100529.00
2018-06-11T16:06:41.885Z,100524.00
2018-06-11T16:09:53.243Z,100528.00
2018-06-11T16:13:04.317Z,100522.00
2018-06-11T16:16:15.820Z,100523.00
2018-06-11T16:19:27.318Z,100529.00
2018-06-11T16:22:39.001Z,100528.00
2018-06-11T16:25:51.352Z,100532.00
2018-06-11T16:29:04.017Z,100531.00
2018-06-11T16:32:15.299Z,100527.00
2018-06-11T16:35:27.696Z,100528.00
2018-06-11T16:38:40.459Z,100532.00
2018-06-11T16:41:52.684Z,100529.00
2018-06-11T16:45:04.461Z,100525.00
2018-06-11T16:48:16.336Z,100528.00
2018-06-11T16:51:28.387Z,100525.00
2018-06-11T16:54:40.133Z,100525.00
2018-06-11T16:57:50.731Z,100520.00
2018-06-11T17:01:01.590Z,100517.00
2018-06-11T17:04:12.504Z,100526.00
2018-06-11T17:07:23.593Z,100523.00
2018-06-11T17:10:34.812Z,100523.00
2018-06-11T17:13:48.398Z,100523.00
2018-06-11T17:16:59.329Z,100517.00
2018-06-11T17:20:09.916Z,100519.00
2018-06-11T17:23:20.825Z,100522.00
2018-06-11T17:26:31.705Z,100519.00
2018-06-11T17:29:42.388Z,100518.00
2018-06-11T17:32:53.320Z,100518.00
2018-06-11T17:36:04.696Z,100530.00
2018-06-11T17:39:15.490Z,100530.00
2018-06-11T17:42:29.928Z,100528.00
2018-06-11T17:45:40.656Z,100531.00
2018-06-11T17:48:51.338Z,100537.00
2018-06-11T17:52:02.734Z,100535.00
2018-06-11T17:55:13.481Z,100537.00
2018-06-11T17:58:24.519Z,100538.00
2018-06-11T18:01:36.069Z,100533.00
2018-06-11T18:04:46.669Z,100530.00
2018-06-11T18:07:57.495Z,100532.00
2018-06-11T18:11:09.090Z,100526.00
2018-06-11T18:14:21.284Z,100520.00
2018-06-11T18:17:32.578Z,100516.00
2018-06-11T18:20:43.515Z,100521.00
2018-06-11T18:23:54.612Z,100518.00
2018-06-11T18:27:05.660Z,100516.00
2018-06-11T18:30:16.507Z,100521.00
2018-06-11T18:33:28.357Z,100514.00
2018-06-11T18:36:41.196Z,100513.00
2018-06-11T18:39:51.860Z,100512.00
2018-06-11T18:43:03.011Z,100509.00
2018-06-11T18:46:14.953Z,100506.00
2018-06-11T18:49:26.658Z,100502.00
2018-06-11T18:52:37.445Z,100499.00
2018-06-11T18:55:52.258Z,100502.00
2018-06-11T18:59:04.871Z,100505.00
2018-06-11T19:02:15.564Z,100507.00
2018-06-11T19:05:26.117Z,100515.00
2018-06-11T19:08:36.590Z,100529.00
2018-06-11T19:11:49.401Z,100540.00
2018-06-11T19:15:00.605Z,100546.00
2018-06-11T19:18:11.374Z,100550.00
2018-06-11T19:21:21.904Z,100551.00
2018-06-11T19:24:33.554Z,100562.00
2018-06-11T19:27:44.962Z,100568.00
2018-06-11T19:30:55.447Z,100570.00
2018-06-11T19:34:06.588Z,100580.00
2018-06-11T19:37:17.265Z,100585.00
2018-06-11T19:40:28.081Z,100596.00
2018-06-11T19:43:38.541Z,100603.00
2018-06-11T19:46:50.554Z,100602.00
2018-06-11T19:50:01.822Z,100602.00
2018-06-11T19:53:13.468Z,100605.00
2018-06-11T19:56:24.240Z,100607.00
2018-06-11T19:59:35.116Z,100605.00
2018-06-11T20:02:46.085Z,100606.00
2018-06-11T20:05:57.228Z,100613.00
2018-06-11T20:09:09.263Z,100619.00
2018-06-11T20:12:19.941Z,100620.00
2018-06-11T20:15:30.778Z,100614.00
2018-06-11T20:18:41.507Z,100616.00
2018-06-11T20:21:52.505Z,100616.00
2018-06-11T20:25:03.481Z,100620.00
2018-06-11T20:28:14.407Z,100621.00
2018-06-11T20:31:25.492Z,100622.00
2018-06-11T20:34:36.837Z,100619.00
2018-06-11T20:37:47.281Z,100623.00
2018-06-11T20:40:58.185Z,100625.00
2018-06-11T20:44:08.644Z,100629.00
2018-06-11T20:47:19.492Z,100623.00
2018-06-11T20:50:30.238Z,100622.00
2018-06-11T20:53:41.448Z,100627.00
2018-06-11T20:56:54.393Z,100637.00
2018-06-11T21:00:05.335Z,100633.00
2018-06-11T21:03:16.396Z,100637.00
2018-06-11T21:06:27.704Z,100631.00
2018-06-11T21:09:38.828Z,100640.00
2018-06-11T21:12:49.557Z,100636.00
2018-06-11T21:16:00.531Z,100636.00
2018-06-11T21:19:11.227Z,100639.00
2018-06-11T21:22:21.567Z,100638.00
2018-06-11T21:25:33.533Z,100643.00
2018-06-11T21:28:44.544Z,100639.00
2018-06-11T21:31:56.542Z,100637.00
2018-06-11T21:35:07.269Z,100649.00
2018-06-11T21:38:18.182Z,100649.00
2018-06-11T21:41:28.665Z,100661.00
2018-06-11T21:44:39.591Z,100660.00
2018-06-11T21:47:50.750Z,100654.00
2018-06-11T21:51:01.609Z,100647.00
2018-06-11T21:54:12.885Z,100650.00
2018-06-11T21:57:23.509Z,100654.00
2018-06-11T22:00:34.126Z,100658.00
2018-06-11T22:03:45.065Z,100662.00
2018-06-11T22:06:55.603Z,100655.00
2018-06-11T22:10:06.463Z,100658.00
2018-06-11T22:13:17.134Z,100661.00
2018-06-11T22:16:28.004Z,100661.00
2018-06-11T22:19:38.690Z,100663.00
2018-06-11T22:22:49.187Z,100662.00
2018-06-11T22:25:59.647Z,100649.00
2018-06-11T22:29:10.601Z,100668.00
2018-06-11T22:32:21.432Z,100670.00
2018-06-11T22:35:32.244Z,100668.00
2018-06-11T22:38:42.928Z,100673.00
2018-06-11T22:41:54.536Z,100677.00
2018-06-11T22:45:05.340Z,100676.00
2018-06-11T22:48:16.022Z,100678.00
2018-06-11T22:51:26.827Z,100680.00
2018-06-11T22:54:37.272Z,100677.00
2018-06-11T22:57:47.771Z,100666.00
2018-06-11T23:00:58.356Z,100662.00
2018-06-11T23:04:09.361Z,100668.00
2018-06-11T23:07:20.436Z,100662.00
2018-06-11T23:10:31.310Z,100668.00
2018-06-11T23:13:42.128Z,100665.00
2018-06-11T23:16:52.773Z,100670.00
2018-06-11T23:20:04.151Z,100666.00
2018-06-11T23:23:14.576Z,100657.00
2018-06-11T23:26:25.404Z,100655.00
2018-06-11T23:29:36.112Z,100658.00
2018-06-11T23:32:46.395Z,100662.00
2018-06-11T23:35:57.023Z,100664.00
2018-06-11T23:39:08.102Z,100665.00
2018-06-11T23:42:18.741Z,100665.00
2018-06-11T23:45:29.811Z,100671.00
2018-06-11T23:48:40.544Z,100671.00
2018-06-11T23:51:50.966Z,100673.00
2018-06-11T23:55:01.589Z,100676.00
2018-06-11T23:58:12.812Z,100675.00
